Aviation Digital Data Service (ADDS)

Output produced by METARs form (1109 UTC 19 January 2019)
found at http://www.aviationweather.gov/metar/data/
 
K20U 191055Z AUTO 13004KT 10SM SCT043 OVC075 M14/M16 A3019 RMK AO2
KBIS 191052Z AUTO 04003KT 10SM OVC100 M18/M21 A3040 RMK AO2 SLP342 T11831206
KBIS 190853Z 1909/2006 06003KT P6SM OVC100 
     FM192100 14006KT P6SM OVC080 
     FM200000 12007KT P6SM OVC035 
     FM200100 12007KT P6SM OVC025 
     FM200400 13009KT 3SM -SN OVC015
       
K9D7 191055Z AUTO 00000KT 10SM OVC090 M26/M28 A3041 RMK AO2
K46D 191055Z AUTO 16003KT 10SM OVC095 M21/M24 A3040 RMK AO2
K2C8 191055Z AUTO 00000KT 10SM CLR M32/M35 A3047 RMK AO2
KS32 191055Z AUTO 14005KT 10SM CLR M25/M28 A3041 RMK AO2
KD50 191055Z AUTO 00000KT 10SM FEW047 FEW060 OVC075 M16/M18 A3031 RMK AO2
KDVL 191056Z AUTO 00000KT 10SM OVC095 M26/M28 A3040 RMK AO2 SLP368 T12611283 FZRANO
KDVL 190520Z 1906/2006 VRB03KT P6SM BKN100 
     FM200000 10006KT P6SM BKN090 
     FM200300 12008KT P6SM BKN050
       
KDIK 191056Z AUTO 15003KT 10SM BKN020 BKN070 OVC090 M16/M18 A3021 RMK AO2 SLP292 T11611178
KDIK 190853Z 1909/2006 18005KT P6SM OVC090 
     FM191900 15007KT P6SM OVC100 
     FM200000 13009KT P6SM OVC045 
     FM200200 15011KT P6SM OVC040
       
KFAR 191053Z 36004KT 10SM CLR M26/M29 A3051 RMK AO2 SLP364 T12611289 $
KFAR 190520Z 1906/2006 36008KT P6SM BKN100 
     FM191100 VRB03KT P6SM FEW250
       
KD57 191055Z AUTO 18005KT 10SM SCT003 SCT080 OVC095 M18/M22 A3030 RMK AO2 PWINO
KGAF 191055Z AUTO 18004KT 10SM CLR M29/M31 A3051 RMK AO2 PWINO
KGFK 191053Z AUTO 18004KT 10SM CLR M30/M32 A3050 RMK AO2 SLP364 T13001322
KGFK 190520Z 1906/2006 VRB03KT P6SM FEW250
       
KGWR 191055Z AUTO 00000KT 10SM M25/M28 A3045 RMK A01
K5H4 191055Z AUTO 00000KT 10SM OVC100 M21/M24 A3038 RMK AO2
KHZE 191055Z AUTO 20005KT 10SM OVC095 M16/M18 A3034 RMK AO2 TSNO
KHEI 191053Z AUTO 15006KT 10SM BKN008 BKN014 OVC090 M16/M18 A3021 RMK AO2 SLP294 T11561178
KJMS 191056Z AUTO 00000KT 10SM OVC100 M22/M24 A3040 RMK AO2 SLP344 T12221244
KJMS 190853Z 1909/2006 00000KT P6SM FEW110 
     FM191000 VRB02KT P6SM OVC100 
     FM200000 11005KT P6SM OVC070 
     FM200300 13007KT 4SM -SN OVC035 
     FM200500 12008KT 2SM -SN OVC020
       
KD55 191055Z AUTO 00000KT 10SM CLR M33/M36 A3037 RMK AO2
K7L2 191055Z AUTO 17008KT 10SM M20/M23 A3039 RMK AO2
KY19 191055Z AUTO 20004KT 10SM OVC095 M19/M20 A3035 RMK AO2
KMOT 191054Z AUTO 00000KT 10SM OVC100 M17/M21 A3034 RMK AO2 SLP324 T11721206
KMOT 190853Z 1909/2006 00000KT P6SM OVC090 
     FM192300 10008KT P6SM OVC045 
     FM200000 10008KT P6SM -SHSN OVC025 
     FM200200 11008KT 1SM -SN OVC015
       
K2D5 191055Z AUTO 00000KT 10SM CLR M25/M28 A3045 RMK AO2 PWINO
K06D 191055Z AUTO 00000KT 10SM SCT075 OVC090 M23/M27 A3034 RMK AO2
K08D 191055Z AUTO 16004KT 10SM BKN060 OVC075 M17/M19 A3027 RMK AO2
KD60 191055Z AUTO 12004KT 10SM OVC065 M17/M19 A3027 RMK AO2
KBAC 191055Z AUTO 00000KT 10SM CLR M25/M27 A3044 RMK AO2
KBWP 191055Z AUTO 34005KT 10SM CLR M25/M28 A3049 RMK AO1
K96D 191055Z AUTO 00000KT 10SM M26/M30 A3046 RMK AO2
KS25 191055Z AUTO 11005KT 10SM BKN065 M16/M18 A3027 RMK AO2
KISN 191052Z AUTO 14003KT 6SM -SN OVC060 M16/M19 A3029 RMK AO2 SNB32 SLP312 P0000 T11561189
KISN 190853Z 1909/2006 VRB03KT P6SM OVC100 
     FM192200 11008KT P6SM OVC040 
     FM192300 11009KT P6SM OVC025 
     FM200100 11009KT P6SM -SHSN OVC015 
     FM200300 12009KT 5SM -SN OVC015